Time;durP1;ratioP1;P1;durP2;ratioP2;P2;SDS_P1;SDS_P2;PMS_P1;PMS_P2;Temp;Humidity;BMP_temperature;BMP_pressure;BME280_temperature;BME280_humidity;BME280_pressure;Samples;Min_cycle;Max_cycle;Signal;HPM_P1;HPM_P2
2023/08/19 00:01:06;;;;;;;8.38;3.25;;;;;;;19.54;100.00;97169.69;4964821;28;20129;-58
2023/08/19 00:03:33;;;;;;;7.05;3.03;;;;;;;19.46;100.00;97168.53;4963017;28;20039;-54
2023/08/19 00:06:07;;;;;;;7.70;3.10;;;;;;;19.43;100.00;97169.97;4965983;28;20049;-53
2023/08/19 00:08:34;;;;;;;7.38;2.83;;;;;;;19.29;100.00;97169.25;4962373;28;20066;-54
2023/08/19 00:11:02;;;;;;;6.07;3.03;;;;;;;19.23;100.00;97176.78;4975060;28;20051;-55
2023/08/19 00:13:30;;;;;;;8.23;3.40;;;;;;;19.21;100.00;97166.13;4961986;28;20122;-51
2023/08/19 00:15:56;;;;;;;7.18;3.20;;;;;;;19.18;100.00;97168.69;4979897;28;20038;-53
2023/08/19 00:18:23;;;;;;;6.95;3.67;;;;;;;19.22;100.00;97159.53;4974054;28;20050;-54
2023/08/19 00:20:50;;;;;;;8.30;3.15;;;;;;;19.28;100.00;97157.47;4964141;28;20109;-53
2023/08/19 00:23:17;;;;;;;7.18;3.25;;;;;;;19.30;100.00;97166.19;4960626;28;20050;-54
2023/08/19 00:25:43;;;;;;;6.85;2.40;;;;;;;19.37;100.00;97165.72;4969587;28;20579;-55
2023/08/19 00:28:10;;;;;;;8.05;3.20;;;;;;;19.36;100.00;97164.13;4973771;28;20145;-54
2023/08/19 00:30:37;;;;;;;6.10;2.70;;;;;;;19.40;100.00;97167.03;4968916;28;20472;-54
2023/08/19 00:33:03;;;;;;;5.35;2.60;;;;;;;19.39;100.00;97169.00;4970714;28;20041;-54
2023/08/19 00:35:32;;;;;;;12.23;3.30;;;;;;;19.49;100.00;97162.41;4959649;28;20043;-51
2023/08/19 00:37:59;;;;;;;6.75;2.55;;;;;;;19.58;99.26;97160.53;4962527;28;20047;-50
2023/08/19 00:40:25;;;;;;;5.53;2.78;;;;;;;19.61;99.40;97162.63;4979169;28;20057;-53
2023/08/19 00:42:52;;;;;;;5.53;2.67;;;;;;;19.60;99.20;97169.25;4985260;28;21486;-53
2023/08/19 00:45:18;;;;;;;5.72;2.38;;;;;;;19.58;99.50;97171.50;4970233;28;20042;-54
2023/08/19 00:47:46;;;;;;;5.90;3.08;;;;;;;19.60;99.18;97165.66;4965602;28;20112;-53
2023/08/19 00:50:14;;;;;;;6.82;3.20;;;;;;;19.57;99.02;97169.88;4965863;28;21157;-51
2023/08/19 00:52:41;;;;;;;6.20;2.97;;;;;;;19.56;99.33;97171.00;4962719;28;20411;-53
2023/08/19 00:55:10;;;;;;;9.23;3.03;;;;;;;19.49;100.00;97178.88;4968770;28;20070;-50
2023/08/19 00:57:38;;;;;;;5.57;3.10;;;;;;;19.43;99.99;97175.47;4961371;28;20679;-52
2023/08/19 01:00:06;;;;;;;5.72;2.53;;;;;;;19.35;100.00;97168.00;4967355;28;20042;-55
2023/08/19 01:02:33;;;;;;;6.13;2.88;;;;;;;19.30;100.00;97171.69;4958452;28;20069;-51
2023/08/19 01:05:00;;;;;;;6.93;2.95;;;;;;;19.21;100.00;97163.38;4965373;28;20038;-53
2023/08/19 01:07:54;;;;;;;6.30;2.70;;;;;;;19.24;100.00;97164.72;4963642;28;20498;-55
2023/08/19 01:10:34;;;;;;;7.75;2.97;;;;;;;19.27;100.00;97166.00;4982048;28;20039;-54
2023/08/19 01:13:14;;;;;;;7.90;3.00;;;;;;;19.24;100.00;97159.22;4976376;28;20041;-52
2023/08/19 01:15:55;;;;;;;5.28;2.47;;;;;;;19.22;100.00;97161.47;4961718;28;20369;-54
2023/08/19 01:18:23;;;;;;;5.35;2.42;;;;;;;19.19;100.00;97157.41;4960803;28;20051;-53
2023/08/19 01:20:52;;;;;;;6.35;3.40;;;;;;;19.16;100.00;97157.25;4962788;28;20058;-52
2023/08/19 01:23:26;;;;;;;6.57;2.88;;;;;;;19.22;100.00;97159.53;4959446;28;20096;-54
2023/08/19 01:25:53;;;;;;;11.15;3.63;;;;;;;19.26;100.00;97156.97;4964494;28;20109;-52
2023/08/19 01:28:20;;;;;;;5.07;2.63;;;;;;;19.20;100.00;97155.47;4973778;28;20156;-54
2023/08/19 01:30:47;;;;;;;5.85;2.58;;;;;;;19.16;100.00;97152.53;4995629;28;20092;-55
2023/08/19 01:33:15;;;;;;;4.95;2.63;;;;;;;19.13;100.00;97160.59;4960588;28;20097;-53
2023/08/19 01:36:18;;;;;;;7.82;3.17;;;;;;;19.13;100.00;97153.19;4993093;28;20411;-54
2023/08/19 01:38:55;;;;;;;5.82;3.20;;;;;;;19.11;100.00;97147.19;4985580;28;20058;-55
2023/08/19 01:41:23;;;;;;;7.72;2.60;;;;;;;19.10;100.00;97156.56;4994307;28;20039;-52
2023/08/19 01:43:49;;;;;;;8.43;2.70;;;;;;;19.13;100.00;97152.38;4967596;28;20035;-52
2023/08/19 01:46:17;;;;;;;5.07;2.70;;;;;;;19.12;100.00;97154.28;4991550;28;20126;-51
2023/08/19 01:48:44;;;;;;;5.63;2.92;;;;;;;19.10;100.00;97160.09;4965877;28;20050;-54
2023/08/19 01:51:10;;;;;;;5.03;2.47;;;;;;;19.07;100.00;97160.75;4964890;28;20502;-51
2023/08/19 01:53:37;;;;;;;10.10;2.78;;;;;;;19.08;100.00;97165.09;4961927;28;20540;-54
2023/08/19 01:56:03;;;;;;;4.88;2.30;;;;;;;18.98;100.00;97159.81;4988897;28;20114;-52
2023/08/19 01:58:30;;;;;;;6.35;2.53;;;;;;;19.02;100.00;97171.00;4969783;28;20070;-54
2023/08/19 02:00:56;;;;;;;6.90;2.78;;;;;;;18.81;100.00;97166.00;4986909;28;20042;-51
2023/08/19 02:03:23;;;;;;;5.05;2.75;;;;;;;18.77;100.00;97163.09;4967000;28;20127;-52
2023/08/19 02:05:50;;;;;;;4.78;2.75;;;;;;;18.64;100.00;97161.22;4987473;28;20042;-53
2023/08/19 02:08:16;;;;;;;5.55;2.65;;;;;;;18.59;100.00;97157.47;4981769;28;20048;-52
2023/08/19 02:10:43;;;;;;;11.90;3.22;;;;;;;18.54;100.00;97154.81;5008424;28;20436;-54
2023/08/19 02:13:09;;;;;;;7.85;3.42;;;;;;;18.61;100.00;97159.09;4963128;28;20045;-54
2023/08/19 02:15:36;;;;;;;7.13;3.22;;;;;;;18.57;100.00;97161.59;4988477;28;20039;-52
2023/08/19 02:18:03;;;;;;;7.55;2.92;;;;;;;18.58;100.00;97155.03;4974453;28;20038;-53
2023/08/19 02:20:30;;;;;;;5.25;3.00;;;;;;;18.66;100.00;97158.94;5001986;28;20051;-52
2023/08/19 02:22:59;;;;;;;8.30;3.60;;;;;;;18.66;100.00;97153.47;4962761;28;20039;-51
2023/08/19 02:25:26;;;;;;;9.02;2.95;;;;;;;18.66;100.00;97157.03;4980314;28;20043;-52
2023/08/19 02:27:52;;;;;;;5.40;2.92;;;;;;;18.71;100.00;97158.81;4974337;28;20133;-54
2023/08/19 02:30:20;;;;;;;7.65;3.13;;;;;;;18.69;100.00;97161.09;5001307;28;20046;-52
2023/08/19 02:32:46;;;;;;;7.28;3.30;;;;;;;18.66;100.00;97156.22;4969322;28;20039;-52
2023/08/19 02:35:13;;;;;;;7.57;3.38;;;;;;;18.68;100.00;97151.22;4977534;28;20065;-52
2023/08/19 02:37:40;;;;;;;9.73;3.25;;;;;;;18.63;100.00;97163.13;4962370;28;20648;-53
2023/08/19 02:40:07;;;;;;;11.30;3.28;;;;;;;18.65;100.00;97160.09;4998200;28;20487;-52
2023/08/19 02:42:36;;;;;;;7.85;2.80;;;;;;;18.57;100.00;97167.91;4967226;28;20595;-54
2023/08/19 02:45:03;;;;;;;10.73;3.78;;;;;;;18.57;100.00;97165.16;4977174;28;20064;-53
2023/08/19 02:47:30;;;;;;;8.23;3.28;;;;;;;18.68;100.00;97151.22;4962240;28;20759;-53
2023/08/19 02:49:57;;;;;;;8.95;3.17;;;;;;;18.71;100.00;97161.56;4996957;28;20492;-53
2023/08/19 02:52:23;;;;;;;9.18;3.25;;;;;;;18.69;100.00;97156.38;4968208;28;20460;-55
2023/08/19 02:54:50;;;;;;;8.43;2.95;;;;;;;18.63;100.00;97159.56;4969096;28;20110;-54
2023/08/19 02:57:16;;;;;;;6.13;3.08;;;;;;;18.64;100.00;97156.50;4971589;28;20658;-52
2023/08/19 02:59:43;;;;;;;5.38;2.83;;;;;;;18.62;100.00;97156.03;4959707;28;20057;-53
2023/08/19 03:02:10;;;;;;;9.07;3.10;;;;;;;18.58;100.00;97158.56;4964296;28;20058;-53
2023/08/19 03:04:37;;;;;;;6.82;2.80;;;;;;;18.56;100.00;97160.81;4965300;28;20039;-54
2023/08/19 03:07:03;;;;;;;5.65;3.30;;;;;;;18.49;100.00;97165.91;4968674;28;20499;-53
2023/08/19 03:09:30;;;;;;;7.25;3.03;;;;;;;18.50;100.00;97169.47;4989086;28;20122;-51
2023/08/19 03:11:56;;;;;;;7.25;3.20;;;;;;;18.47;100.00;97170.91;4966788;28;20061;-52
2023/08/19 03:14:23;;;;;;;8.00;3.10;;;;;;;18.44;100.00;97166.03;4962244;28;20043;-52
2023/08/19 03:16:50;;;;;;;8.32;3.58;;;;;;;18.44;100.00;97168.78;4989913;28;20047;-52
2023/08/19 03:19:18;;;;;;;7.70;3.55;;;;;;;18.41;100.00;97164.72;4989254;28;20039;-54
2023/08/19 03:21:45;;;;;;;5.50;2.95;;;;;;;18.28;100.00;97160.09;4984818;28;20043;-55
2023/08/19 03:24:11;;;;;;;5.07;2.60;;;;;;;18.22;100.00;97166.78;4962125;28;20043;-54
2023/08/19 03:26:38;;;;;;;7.95;3.10;;;;;;;18.20;100.00;97172.56;4972123;28;20042;-52
2023/08/19 03:29:05;;;;;;;5.75;3.05;;;;;;;18.16;100.00;97166.91;4988216;28;20033;-55
2023/08/19 03:31:32;;;;;;;11.77;3.25;;;;;;;18.17;100.00;97160.28;4961227;28;20108;-55
2023/08/19 03:33:58;;;;;;;7.28;3.35;;;;;;;18.20;100.00;97159.69;4963199;28;20047;-53
2023/08/19 03:36:25;;;;;;;8.27;3.20;;;;;;;18.19;100.00;97162.72;4967951;28;20055;-55
2023/08/19 03:38:51;;;;;;;6.13;3.13;;;;;;;18.19;100.00;97165.47;4991619;28;20064;-53
2023/08/19 03:41:18;;;;;;;6.20;2.78;;;;;;;18.12;100.00;97163.16;4984510;28;20042;-53
2023/08/19 03:43:45;;;;;;;10.55;3.30;;;;;;;18.02;100.00;97166.88;4970205;28;20039;-55
2023/08/19 03:46:11;;;;;;;8.65;3.40;;;;;;;17.87;100.00;97170.75;4971913;28;20043;-54
2023/08/19 03:48:38;;;;;;;8.43;3.40;;;;;;;17.88;100.00;97169.63;4973700;28;20108;-51
2023/08/19 03:51:04;;;;;;;6.10;3.10;;;;;;;17.98;100.00;97174.09;4976545;28;20502;-54
2023/08/19 03:53:31;;;;;;;6.63;3.63;;;;;;;18.04;100.00;97172.06;4971004;28;20042;-53
2023/08/19 03:55:58;;;;;;;5.35;3.30;;;;;;;18.06;100.00;97178.06;4967663;28;20084;-53
2023/08/19 03:58:25;;;;;;;9.65;3.75;;;;;;;18.19;100.00;97168.22;4969285;28;20104;-52
2023/08/19 04:00:51;;;;;;;7.03;3.13;;;;;;;18.31;100.00;97170.41;5014623;28;20034;-53
2023/08/19 04:03:25;;;;;;;5.88;3.38;;;;;;;18.46;100.00;97161.84;4956614;28;20587;-54
2023/08/19 04:05:51;;;;;;;7.45;3.60;;;;;;;18.54;100.00;97174.00;4990144;28;20136;-54
2023/08/19 04:08:18;;;;;;;6.43;3.25;;;;;;;18.58;100.00;97171.47;4981763;28;20128;-52
2023/08/19 04:10:44;;;;;;;5.95;3.95;;;;;;;18.60;100.00;97163.75;5001048;28;20029;-49
2023/08/19 04:13:11;;;;;;;7.72;3.35;;;;;;;18.60;100.00;97166.47;4959642;28;20039;-53
2023/08/19 04:15:38;;;;;;;8.27;3.63;;;;;;;18.58;100.00;97169.53;4976310;28;20037;-51
2023/08/19 04:18:05;;;;;;;7.97;3.78;;;;;;;18.47;100.00;97165.41;4976656;28;20074;-53
2023/08/19 04:20:31;;;;;;;7.07;3.20;;;;;;;18.33;100.00;97168.97;4987133;28;20055;-59
2023/08/19 04:22:58;;;;;;;5.88;3.10;;;;;;;18.18;100.00;97163.84;4960073;28;20043;-50
2023/08/19 04:25:24;;;;;;;11.35;3.53;;;;;;;18.20;100.00;97165.16;4969034;28;20065;-53
2023/08/19 04:27:51;;;;;;;5.85;3.35;;;;;;;17.98;100.00;97168.59;4994882;28;20119;-49
2023/08/19 04:30:18;;;;;;;6.00;3.72;;;;;;;17.89;100.00;97173.19;4960521;28;20054;-52
2023/08/19 04:32:46;;;;;;;9.25;3.35;;;;;;;17.91;100.00;97169.03;4976275;28;20042;-51
2023/08/19 04:35:14;;;;;;;10.05;4.05;;;;;;;17.75;100.00;97175.91;4959878;28;20043;-54
2023/08/19 04:37:40;;;;;;;5.95;3.55;;;;;;;17.85;100.00;97173.00;4987134;28;20043;-55
2023/08/19 04:40:09;;;;;;;8.38;3.30;;;;;;;18.12;100.00;97176.03;4974173;28;20122;-49
2023/08/19 04:42:39;;;;;;;8.82;3.88;;;;;;;18.31;100.00;97171.25;5014098;28;20529;-50
2023/08/19 04:45:09;;;;;;;10.15;3.83;;;;;;;18.44;100.00;97166.84;4966642;28;20046;-50
2023/08/19 04:47:39;;;;;;;10.57;3.40;;;;;;;18.67;100.00;97171.53;4983885;28;20451;-49
2023/08/19 04:50:08;;;;;;;6.75;3.35;;;;;;;18.95;99.61;97174.19;4980981;28;20130;-48
2023/08/19 04:52:35;;;;;;;6.13;3.58;;;;;;;19.18;97.74;97172.25;4974788;28;20043;-50
2023/08/19 04:55:04;;;;;;;6.60;3.38;;;;;;;19.35;96.25;97178.97;4961304;28;20069;-54
2023/08/19 04:57:30;;;;;;;10.05;3.53;;;;;;;19.52;94.89;97180.16;4976998;28;20074;-52
2023/08/19 04:59:57;;;;;;;9.68;3.63;;;;;;;19.56;94.59;97178.41;4970574;28;20047;-52
2023/08/19 05:02:27;;;;;;;8.63;3.55;;;;;;;19.59;93.78;97175.03;4970580;28;20104;-52
2023/08/19 05:04:54;;;;;;;7.90;3.30;;;;;;;19.62;92.88;97175.25;4959197;28;20035;-50
2023/08/19 05:07:20;;;;;;;7.97;4.10;;;;;;;19.69;91.98;97182.19;4960190;28;20076;-48
2023/08/19 05:09:47;;;;;;;6.97;3.15;;;;;;;19.72;91.82;97174.13;4970583;28;20035;-49
2023/08/19 05:12:14;;;;;;;10.25;3.75;;;;;;;19.74;91.99;97177.38;4973205;28;20039;-47
2023/08/19 05:14:41;;;;;;;6.28;3.60;;;;;;;19.70;92.68;97184.63;4964330;28;20049;-46
2023/08/19 05:17:08;;;;;;;8.30;3.67;;;;;;;19.56;94.17;97184.72;4967681;28;20057;-47
2023/08/19 05:19:36;;;;;;;7.25;3.42;;;;;;;19.55;94.21;97185.03;4965516;28;20059;-49
2023/08/19 05:22:02;;;;;;;7.72;3.75;;;;;;;19.59;93.00;97184.09;4985233;28;20043;-48
2023/08/19 05:24:29;;;;;;;6.70;3.40;;;;;;;19.79;91.71;97189.34;4967995;28;20134;-48
2023/08/19 05:26:55;;;;;;;7.75;3.70;;;;;;;20.02;89.97;97187.38;4973434;28;20570;-49
2023/08/19 05:29:22;;;;;;;6.55;3.20;;;;;;;20.23;88.48;97190.31;4971905;28;20054;-48
2023/08/19 05:31:49;;;;;;;5.53;3.20;;;;;;;20.42;87.02;97196.66;4995915;28;20043;-53
2023/08/19 05:34:16;;;;;;;9.07;3.42;;;;;;;20.52;86.48;97188.91;4966591;28;20046;-50
2023/08/19 05:36:43;;;;;;;8.40;3.42;;;;;;;20.57;86.18;97193.44;4967285;28;20053;-51
2023/08/19 05:39:10;;;;;;;6.60;3.28;;;;;;;20.62;86.47;97201.53;4981071;28;20036;-53
2023/08/19 05:41:37;;;;;;;6.47;3.35;;;;;;;20.72;86.00;97207.84;4977642;28;20035;-50
2023/08/19 05:44:05;;;;;;;6.53;3.70;;;;;;;20.71;85.73;97206.25;4968506;28;20047;-52
2023/08/19 05:46:35;;;;;;;7.57;3.70;;;;;;;20.77;84.45;97207.69;4967348;28;20047;-54
2023/08/19 05:49:02;;;;;;;8.30;3.75;;;;;;;20.91;83.02;97208.38;4979840;28;20055;-54
2023/08/19 05:51:29;;;;;;;8.82;3.55;;;;;;;21.00;82.67;97197.34;4977561;28;20050;-52
2023/08/19 05:54:00;;;;;;;6.57;3.30;;;;;;;21.10;82.38;97203.66;4990678;28;20043;-52
2023/08/19 05:56:27;;;;;;;6.28;3.17;;;;;;;21.19;82.16;97212.69;4964099;28;20078;-54
2023/08/19 05:58:54;;;;;;;7.13;3.50;;;;;;;21.24;81.88;97211.72;4975551;28;20580;-50
2023/08/19 06:01:20;;;;;;;7.75;3.78;;;;;;;21.34;81.31;97213.34;4961098;28;20619;-54
2023/08/19 06:03:50;;;;;;;6.55;3.45;;;;;;;21.46;81.44;97224.50;4966184;28;20488;-49
2023/08/19 06:06:17;;;;;;;5.78;3.10;;;;;;;21.57;79.79;97219.44;4964855;28;20039;-54
2023/08/19 06:08:44;;;;;;;5.97;2.97;;;;;;;21.67;79.35;97218.28;4971153;28;20054;-52
2023/08/19 06:11:10;;;;;;;6.97;3.95;;;;;;;21.73;78.78;97227.19;4985809;28;20056;-54
2023/08/19 06:13:37;;;;;;;8.48;3.08;;;;;;;21.82;78.37;97227.97;4964435;28;20047;-51
2023/08/19 06:16:04;;;;;;;8.80;3.80;;;;;;;21.90;77.58;97234.59;4963515;28;20047;-49
2023/08/19 06:18:32;;;;;;;4.75;2.70;;;;;;;21.96;77.10;97230.50;4975470;28;20078;-52
2023/08/19 06:20:59;;;;;;;5.60;2.83;;;;;;;22.06;76.88;97238.41;4980170;28;20506;-54
2023/08/19 06:23:26;;;;;;;10.38;3.17;;;;;;;22.13;76.72;97231.56;4967715;28;20533;-52
2023/08/19 06:25:53;;;;;;;7.22;3.63;;;;;;;22.24;76.33;97223.72;4971633;28;20117;-48
2023/08/19 06:28:21;;;;;;;7.03;2.97;;;;;;;22.40;75.19;97238.56;4969721;28;20057;-53
2023/08/19 06:30:48;;;;;;;7.40;3.05;;;;;;;22.54;74.49;97237.50;4987898;28;20054;-51
2023/08/19 06:33:16;;;;;;;5.72;2.85;;;;;;;22.68;74.46;97243.63;4967100;28;20126;-52
2023/08/19 06:35:51;;;;;;;5.45;2.60;;;;;;;22.81;72.95;97244.47;4972732;28;20043;-51
2023/08/19 06:38:26;;;;;;;5.88;3.10;;;;;;;22.97;71.34;97241.91;4973214;28;20128;-54
2023/08/19 06:41:01;;;;;;;7.40;3.17;;;;;;;23.13;70.02;97235.78;4984513;28;20070;-52
2023/08/19 06:43:29;;;;;;;8.45;2.80;;;;;;;23.31;68.70;97238.38;4962111;28;20050;-52
2023/08/19 06:45:56;;;;;;;8.40;2.97;;;;;;;23.44;68.07;97244.81;4977548;28;20047;-54
2023/08/19 06:48:24;;;;;;;9.35;3.00;;;;;;;23.57;67.25;97245.63;4972113;28;20043;-51
2023/08/19 06:50:52;;;;;;;7.63;2.80;;;;;;;23.75;65.73;97249.84;4989802;28;20057;-54
2023/08/19 06:53:19;;;;;;;12.23;3.42;;;;;;;23.85;65.09;97243.03;4964014;28;20047;-53
2023/08/19 06:55:58;;;;;;;7.85;2.58;;;;;;;23.97;64.62;97250.56;4973442;28;20035;-54
2023/08/19 06:58:28;;;;;;;6.65;2.60;;;;;;;24.04;65.42;97252.75;4976082;28;20064;-52
2023/08/19 07:01:00;;;;;;;8.90;3.05;;;;;;;24.16;64.98;97252.78;4994712;28;20046;-52
2023/08/19 07:03:29;;;;;;;7.60;3.10;;;;;;;24.21;64.48;97257.28;4957252;28;20062;-52
2023/08/19 07:05:58;;;;;;;9.55;2.70;;;;;;;24.26;64.39;97261.78;4972542;28;20031;-53
2023/08/19 07:08:26;;;;;;;6.78;2.97;;;;;;;24.34;64.37;97265.56;4983489;28;20130;-53
2023/08/19 07:10:54;;;;;;;6.10;2.40;;;;;;;24.36;64.51;97264.06;4979711;28;20136;-50
2023/08/19 07:13:20;;;;;;;4.35;2.63;;;;;;;24.39;64.57;97274.44;4971433;28;20051;-54
2023/08/19 07:15:55;;;;;;;5.72;2.40;;;;;;;24.49;62.54;97272.38;4973183;28;20494;-53
2023/08/19 07:18:26;;;;;;;6.07;2.65;;;;;;;24.60;63.04;97281.00;4965352;28;20150;-56
2023/08/19 07:20:55;;;;;;;8.15;2.70;;;;;;;24.63;62.60;97281.16;4989675;28;20125;-53
2023/08/19 07:23:23;;;;;;;5.30;2.53;;;;;;;24.71;62.64;97286.88;4976053;28;20058;-52
2023/08/19 07:25:50;;;;;;;7.35;2.78;;;;;;;24.78;62.62;97282.38;4966589;28;20039;-49
2023/08/19 07:28:21;;;;;;;4.97;2.53;;;;;;;24.80;62.79;97279.25;4972369;28;20125;-52
2023/08/19 07:30:48;;;;;;;;;;;;;;;24.89;61.85;97282.75;4983150;28;20125;-50
2023/08/19 07:33:15;;;;;;;6.22;3.08;;;;;;;24.98;61.36;97279.81;4974012;28;19945;-56
2023/08/19 07:35:43;;;;;;;4.63;2.80;;;;;;;25.05;61.66;97280.03;4963233;28;20041;-53
2023/08/19 07:38:09;;;;;;;6.93;2.97;;;;;;;25.13;62.05;97289.34;4967294;28;20043;-53
2023/08/19 07:40:37;;;;;;;7.25;3.35;;;;;;;25.27;60.90;97286.19;4971867;28;20169;-53
2023/08/19 07:43:03;;;;;;;7.25;3.00;;;;;;;25.36;60.65;97291.63;4997431;28;20054;-48
2023/08/19 07:45:30;;;;;;;5.70;2.35;;;;;;;25.49;60.10;97295.13;4968612;28;20121;-50
2023/08/19 07:47:57;;;;;;;10.38;2.83;;;;;;;25.62;59.64;97300.66;4964227;28;20042;-53
2023/08/19 07:50:24;;;;;;;6.35;2.85;;;;;;;25.74;60.49;97294.22;4975436;28;20117;-54
2023/08/19 07:52:50;;;;;;;4.78;2.55;;;;;;;25.69;62.13;97312.72;4963394;28;20047;-52
2023/08/19 07:55:17;;;;;;;7.97;3.20;;;;;;;25.64;60.13;97313.00;4973434;28;20047;-53
2023/08/19 07:57:44;;;;;;;6.95;2.95;;;;;;;25.70;61.18;97305.22;4978426;28;20042;-52
2023/08/19 08:00:11;;;;;;;9.65;2.97;;;;;;;25.80;59.13;97301.13;4970103;28;20083;-54
2023/08/19 08:02:40;;;;;;;6.75;2.40;;;;;;;25.94;60.15;97309.03;4960175;28;20047;-51
2023/08/19 08:05:07;;;;;;;5.07;2.45;;;;;;;26.07;57.89;97304.19;4962316;28;20052;-50
2023/08/19 08:07:34;;;;;;;9.23;2.72;;;;;;;26.24;58.69;97311.38;4977971;28;20092;-52
2023/08/19 08:10:03;;;;;;;7.22;2.65;;;;;;;26.25;57.60;97315.75;4982020;28;20448;-53
2023/08/19 08:12:31;;;;;;;5.90;3.00;;;;;;;26.39;56.48;97318.13;4967172;28;20104;-53
2023/08/19 08:15:00;;;;;;;6.55;2.92;;;;;;;26.47;58.41;97313.53;4961237;28;20158;-54
2023/08/19 08:17:27;;;;;;;6.18;2.33;;;;;;;26.57;56.38;97314.97;4960259;28;20092;-48
2023/08/19 08:19:55;;;;;;;6.85;2.72;;;;;;;26.72;55.32;97314.13;4970923;28;20035;-50
2023/08/19 08:22:23;;;;;;;8.15;2.85;;;;;;;26.83;54.36;97314.38;4968355;28;20576;-54
2023/08/19 08:24:49;;;;;;;8.32;3.38;;;;;;;26.92;54.54;97302.25;4967787;28;20046;-53
2023/08/19 08:27:16;;;;;;;8.55;2.97;;;;;;;27.02;55.94;97293.41;4992242;28;20037;-50
2023/08/19 08:29:42;;;;;;;9.20;2.97;;;;;;;27.05;53.75;97306.53;4974071;28;20066;-51
2023/08/19 08:32:09;;;;;;;11.27;3.10;;;;;;;27.10;53.67;97305.47;4992986;28;20048;-51
2023/08/19 08:34:36;;;;;;;6.40;2.90;;;;;;;27.11;53.80;97299.53;4964780;28;20480;-52
2023/08/19 08:37:03;;;;;;;7.07;2.50;;;;;;;27.18;55.97;97296.13;4997080;28;20042;-53
2023/08/19 08:39:30;;;;;;;6.63;3.08;;;;;;;27.20;54.00;97299.31;4970057;28;20051;-60
2023/08/19 08:41:57;;;;;;;7.97;2.72;;;;;;;27.37;53.48;97306.44;4960751;28;20034;-61
2023/08/19 08:44:26;;;;;;;6.22;2.67;;;;;;;27.49;53.05;97307.47;4958297;28;20046;-60
2023/08/19 08:46:55;;;;;;;7.53;3.05;;;;;;;27.57;53.30;97309.22;4980963;28;20492;-60
2023/08/19 08:49:24;;;;;;;6.13;2.70;;;;;;;27.68;52.45;97305.84;4969513;28;20123;-60
2023/08/19 08:51:52;;;;;;;7.03;2.65;;;;;;;27.68;53.03;97300.28;4979311;28;20121;-60
2023/08/19 08:54:21;;;;;;;5.03;2.30;;;;;;;27.70;52.94;97309.06;4969100;28;20047;-61
2023/08/19 08:56:48;;;;;;;5.18;2.45;;;;;;;27.67;52.77;97309.81;4973228;28;20042;-61
2023/08/19 08:59:16;;;;;;;4.95;2.63;;;;;;;27.72;51.18;97312.28;4970715;28;20049;-61
2023/08/19 09:01:45;;;;;;;5.97;2.72;;;;;;;27.72;51.82;97310.34;4975341;28;20053;-61
2023/08/19 09:04:15;;;;;;;6.20;3.28;;;;;;;27.75;53.09;97315.13;4964872;28;20053;-61
2023/08/19 09:06:44;;;;;;;7.85;2.70;;;;;;;27.78;53.48;97302.47;4965907;28;20035;-64
2023/08/19 09:09:13;;;;;;;6.18;2.90;;;;;;;27.81;53.43;97309.28;4974956;28;20050;-62
2023/08/19 09:11:43;;;;;;;9.93;3.35;;;;;;;27.96;52.64;97304.81;4965869;28;20065;-61
2023/08/19 09:14:17;;;;;;;5.95;2.97;;;;;;;28.10;50.17;97296.69;4973478;28;20046;-60
2023/08/19 09:16:44;;;;;;;5.93;2.67;;;;;;;28.25;49.02;97305.28;4960631;28;20424;-61
2023/08/19 09:19:10;;;;;;;7.90;2.53;;;;;;;28.46;48.96;97301.28;4966981;28;20046;-61
2023/08/19 09:21:38;;;;;;;5.05;2.72;;;;;;;28.45;49.71;97308.03;4963426;28;20116;-61
2023/08/19 09:24:05;;;;;;;10.45;3.42;;;;;;;28.52;51.85;97310.94;4959653;28;20541;-61
2023/08/19 09:26:32;;;;;;;5.50;2.65;;;;;;;28.64;52.97;97315.47;4962082;28;20050;-61
2023/08/19 09:28:58;;;;;;;4.90;3.00;;;;;;;28.78;52.52;97309.34;4978751;28;20130;-62
2023/08/19 09:31:25;;;;;;;8.80;2.60;;;;;;;28.99;52.16;97316.41;4963909;28;20067;-61
2023/08/19 09:33:53;;;;;;;7.05;3.00;;;;;;;29.06;51.39;97320.13;4988394;28;20108;-62
2023/08/19 09:36:23;;;;;;;7.03;2.88;;;;;;;29.07;49.83;97320.91;4994991;28;20054;-61
2023/08/19 09:38:57;;;;;;;4.72;2.63;;;;;;;29.13;52.04;97324.16;4978329;28;20103;-62
2023/08/19 09:41:30;;;;;;;6.95;2.90;;;;;;;29.20;50.79;97321.47;4967068;28;20046;-61
2023/08/19 09:43:57;;;;;;;5.25;2.78;;;;;;;29.21;50.43;97320.28;4979783;28;20039;-61
2023/08/19 09:46:33;;;;;;;7.07;2.88;;;;;;;29.20;50.10;97313.94;4988242;28;20505;-61
2023/08/19 09:49:00;;;;;;;5.30;2.40;;;;;;;29.26;51.02;97311.59;4982230;28;20455;-61
2023/08/19 09:51:28;;;;;;;7.45;2.78;;;;;;;29.31;50.53;97310.47;4965498;28;20065;-61
2023/08/19 09:53:56;;;;;;;5.60;3.08;;;;;;;29.50;50.68;97315.09;5003945;28;20042;-61
2023/08/19 09:56:26;;;;;;;6.93;2.50;;;;;;;29.59;51.76;97321.19;4968536;28;20515;-61
2023/08/19 09:58:54;;;;;;;;;;;;;;;29.68;50.49;97320.09;4976402;28;20557;-61
2023/08/19 10:01:22;;;;;;;8.40;2.85;;;;;;;29.73;50.31;97323.34;4967597;28;19932;-62
2023/08/19 10:03:49;;;;;;;6.95;3.13;;;;;;;29.78;50.50;97325.00;5003760;28;20065;-61
2023/08/19 10:06:31;;;;;;;4.97;3.13;;;;;;;29.96;49.83;97327.19;4949535;28;20641;-61
2023/08/19 10:09:04;;;;;;;8.93;3.05;;;;;;;30.07;49.13;97322.50;4972803;28;20418;-60
2023/08/19 10:11:33;;;;;;;9.10;2.97;;;;;;;30.23;48.60;97321.47;4990417;28;20142;-61
2023/08/19 10:14:03;;;;;;;6.57;2.97;;;;;;;30.39;48.00;97321.22;4982148;28;20062;-62
2023/08/19 10:16:32;;;;;;;8.57;3.10;;;;;;;30.46;48.07;97329.66;4961619;28;20045;-62
2023/08/19 10:19:02;;;;;;;8.13;2.58;;;;;;;30.57;47.07;97328.94;4972786;28;20043;-62
2023/08/19 10:21:30;;;;;;;7.45;2.72;;;;;;;30.62;46.22;97325.78;4961682;28;20058;-61
2023/08/19 10:23:59;;;;;;;5.93;2.60;;;;;;;30.63;44.35;97324.59;4970569;28;20154;-63
2023/08/19 10:26:26;;;;;;;6.47;2.60;;;;;;;30.67;44.62;97322.63;4975748;28;20753;-62
2023/08/19 10:29:03;;;;;;;6.50;2.83;;;;;;;30.75;43.29;97327.13;4974346;28;20168;-62
2023/08/19 10:31:30;;;;;;;6.35;3.00;;;;;;;30.85;43.93;97325.56;4965477;28;20055;-62
2023/08/19 10:33:57;;;;;;;7.50;3.13;;;;;;;31.07;43.64;97338.88;4979213;28;20050;-62
2023/08/19 10:36:29;;;;;;;6.40;2.90;;;;;;;31.21;42.64;97333.34;4967841;28;20130;-62
2023/08/19 10:38:59;;;;;;;5.22;2.60;;;;;;;31.21;41.48;97335.38;4962534;28;20042;-60
2023/08/19 10:41:29;;;;;;;7.05;2.70;;;;;;;31.21;40.24;97333.34;4976285;28;20051;-61
2023/08/19 10:44:01;;;;;;;8.43;2.83;;;;;;;31.36;38.65;97334.25;4977632;28;20046;-62
2023/08/19 10:46:38;;;;;;;4.75;2.35;;;;;;;31.41;39.05;97333.09;4963015;28;20092;-63
2023/08/19 10:49:07;;;;;;;7.47;2.53;;;;;;;31.59;37.52;97329.56;4963738;28;20038;-62
2023/08/19 10:51:59;;;;;;;4.53;2.15;;;;;;;31.71;36.22;97329.22;4962495;28;20806;-61
2023/08/19 10:54:40;;;;;;;4.68;2.40;;;;;;;31.88;36.73;97329.66;4974676;28;20066;-63
2023/08/19 10:57:08;;;;;;;5.63;2.30;;;;;;;31.97;34.57;97324.50;4968435;28;20042;-61
2023/08/19 10:59:36;;;;;;;3.67;2.28;;;;;;;32.15;34.12;97338.53;4997042;28;20058;-63
2023/08/19 11:02:04;;;;;;;5.05;2.08;;;;;;;32.27;34.01;97334.53;4961371;28;20035;-62
2023/08/19 11:04:32;;;;;;;5.68;2.50;;;;;;;32.31;34.98;97338.16;4994954;28;20137;-60
2023/08/19 11:06:59;;;;;;;5.72;2.30;;;;;;;32.41;35.16;97335.75;4943491;28;21529;-61
2023/08/19 11:09:26;;;;;;;5.15;2.40;;;;;;;32.58;33.29;97328.59;4958675;28;20065;-61
2023/08/19 11:11:59;;;;;;;5.22;2.22;;;;;;;32.61;32.61;97326.97;4959545;28;20123;-60
2023/08/19 11:14:26;;;;;;;5.45;2.47;;;;;;;32.47;32.40;97334.19;4982505;28;20054;-61
2023/08/19 11:16:55;;;;;;;6.03;2.10;;;;;;;32.64;32.46;97332.56;4949437;28;20494;-60
2023/08/19 11:19:22;;;;;;;5.72;2.30;;;;;;;32.80;32.37;97334.16;4999493;28;20103;-61
2023/08/19 11:21:49;;;;;;;4.00;2.28;;;;;;;32.90;32.38;97329.75;4964434;28;20051;-62
2023/08/19 11:24:16;;;;;;;4.32;2.42;;;;;;;32.91;32.45;97326.53;4989276;28;20053;-63
2023/08/19 11:26:47;;;;;;;5.20;2.35;;;;;;;32.92;32.26;97321.72;4961712;28;20122;-61
2023/08/19 11:29:14;;;;;;;4.30;2.15;;;;;;;33.00;32.76;97325.31;4963404;28;20631;-62
2023/08/19 11:31:42;;;;;;;7.65;2.60;;;;;;;32.92;32.54;97321.72;4950124;28;20154;-60
2023/08/19 11:34:11;;;;;;;5.95;2.20;;;;;;;32.83;32.18;97334.16;4946206;28;20058;-60